createdAt,value
2017-06-28T00:00:02.476Z,16.42
2017-06-28T00:10:03.052Z,16.39
2017-06-28T00:20:02.297Z,16.37
2017-06-28T00:30:02.783Z,16.36
2017-06-28T00:40:02.251Z,16.31
2017-06-28T00:50:02.265Z,16.28
2017-06-28T01:00:02.741Z,16.17
2017-06-28T01:10:02.436Z,16.05
2017-06-28T01:20:03.141Z,15.95
2017-06-28T01:30:02.614Z,15.83
2017-06-28T01:40:03.121Z,15.71
2017-06-28T01:50:02.685Z,15.68
2017-06-28T02:00:02.139Z,15.68
2017-06-28T02:10:02.816Z,15.58
2017-06-28T02:20:03.032Z,15.58
2017-06-28T02:30:02.450Z,15.45
2017-06-28T02:40:03.017Z,15.31
2017-06-28T02:50:02.593Z,15.26
2017-06-28T03:00:03.031Z,15.14
2017-06-28T03:10:02.909Z,15.02
2017-06-28T03:20:02.274Z,14.87
2017-06-28T03:30:02.690Z,14.62
2017-06-28T03:40:02.224Z,14.53
2017-06-28T03:50:02.943Z,14.41
2017-06-28T04:00:02.422Z,14.44
2017-06-28T04:10:02.941Z,14.6
2017-06-28T04:20:02.763Z,14.77
2017-06-28T04:30:02.214Z,14.94
2017-06-28T04:40:03.054Z,15.14
2017-06-28T04:50:02.919Z,15.27
2017-06-28T05:00:02.434Z,15.51
2017-06-28T05:10:02.157Z,15.71
2017-06-28T05:20:02.164Z,15.9
2017-06-28T05:30:02.621Z,16.07
2017-06-28T05:40:03.091Z,16.21
2017-06-28T05:50:02.628Z,16.39
2017-06-28T06:00:03.076Z,16.66
2017-06-28T06:10:02.738Z,16.85
2017-06-28T06:20:02.817Z,17.17
2017-06-28T06:30:02.237Z,17.41
2017-06-28T06:40:02.972Z,17.77
2017-06-28T06:50:02.945Z,18.14
2017-06-28T07:00:02.417Z,18.71
2017-06-28T07:10:02.139Z,19.85
2017-06-28T07:20:02.272Z,20.35
2017-06-28T07:30:02.692Z,20.16
2017-06-28T07:40:02.376Z,20.71
2017-06-28T07:50:02.431Z,22.47
2017-06-28T08:00:02.949Z,22.71
2017-06-28T08:10:02.557Z,22.48
2017-06-28T08:20:02.869Z,21.88
2017-06-28T08:30:02.274Z,21.78
2017-06-28T08:40:02.748Z,21.7
2017-06-28T08:50:02.734Z,21.49
2017-06-28T09:00:02.384Z,21.69
2017-06-28T09:10:02.901Z,21.55
2017-06-28T09:20:02.507Z,21.5
2017-06-28T09:30:02.948Z,21.09
2017-06-28T09:40:02.536Z,20.5
2017-06-28T09:50:02.708Z,19.95
2017-06-28T10:00:02.185Z,19.55
2017-06-28T10:10:02.992Z,19.39
2017-06-28T10:20:02.715Z,19.54
2017-06-28T10:30:02.123Z,19.75
2017-06-28T10:40:02.616Z,19.72
2017-06-28T10:50:02.537Z,19.46
2017-06-28T11:00:02.965Z,19.3
2017-06-28T11:10:02.577Z,19.15
2017-06-28T11:20:02.766Z,18.97
2017-06-28T11:30:02.186Z,18.85
2017-06-28T11:40:02.643Z,18.74
2017-06-28T11:50:02.394Z,18.66
2017-06-28T12:00:02.853Z,18.53
2017-06-28T12:10:02.750Z,18.38
2017-06-28T12:20:02.180Z,18.3
2017-06-28T12:30:02.658Z,18.19
2017-06-28T12:40:03.141Z,18.12
2017-06-28T12:50:02.322Z,18.2
2017-06-28T13:00:02.795Z,18.25
2017-06-28T13:10:02.393Z,18.32
2017-06-28T13:20:03.070Z,18.43
2017-06-28T13:30:02.501Z,18.67
2017-06-28T13:40:02.933Z,19.01
2017-06-28T13:50:03.014Z,19.02
2017-06-28T14:00:02.478Z,18.94
2017-06-28T14:10:03.093Z,19.03
2017-06-28T14:20:02.761Z,19.41
2017-06-28T14:30:02.237Z,19.57
2017-06-28T14:40:03.039Z,19.45
2017-06-28T14:50:03.104Z,19.56
2017-06-28T15:00:02.557Z,19.73
2017-06-28T15:10:02.185Z,20.05
2017-06-28T15:20:02.277Z,20.28
2017-06-28T15:30:02.728Z,20.69
2017-06-28T15:40:02.436Z,21.03
2017-06-28T15:50:02.502Z,21.46
2017-06-28T16:00:02.984Z,21
2017-06-28T16:10:02.752Z,20.94
2017-06-28T16:20:02.251Z,21.07
2017-06-28T16:30:02.727Z,20.93
2017-06-28T17:40:02.597Z,20.35
2017-06-28T18:00:02.986Z,20.02
2017-06-28T20:20:02.435Z,18.05
